Site contains unofficial IBTrACS data. Visit the IBTrACS Website to access archived data.

1915 NOT_NAMED (1915356S13129)


IBTrACS version v04r00. Visit IBTrACS website for data access.
Please direct all questions to the IBTrACS Q and A forum

Storm track - Intensity - Wind Radii - Intensity Data - Source Data - All data

Summary Information

Storm ID 1915356S13129
Start Dec 21 23Z
Landfall Dec 23 09Z
End Dec 23 23Z
ATCF IDs
Track status Best track data.

Storm track plot

Map of storm track

Intensity plots

No Intensity information for this storm


Radial wind information

No radial wind information for this storm


Position and Intensity Table

BASIN ISO_TIME_________ NATURE LAT LON
degrees north degrees east
SI 1915-12-21 23:30:00 NR -12.70 128.50
SI 1915-12-22 00:00:00 NR -12.68 128.53
SI 03:00:00 NR -12.54 128.71
SI 06:00:00 NR -12.40 128.90
SI 09:00:00 NR -12.28 129.10
SI 12:00:00 NR -12.18 129.32
SI 15:00:00 NR -12.09 129.57
SI 18:00:00 NR -12.03 129.86
SI 21:00:00 NR -12.00 130.19
SI 23:30:00 NR -12.00 130.50
SI 1915-12-23 00:00:00 NR -12.00 130.57
SI 03:00:00 NR -12.05 130.98
SI 06:00:00 NR -12.15 131.38
SI 07:00:00 NR -12.20 131.50
SI 09:00:00 NR -12.32 131.71
SI 12:00:00 NR -12.55 131.95
SI 15:00:00 NR -12.84 132.12
SI 18:00:00 NR -13.16 132.24
SI 21:00:00 NR -13.50 132.34
SI 23:30:00 NR -13.80 132.40

Source Information

Agency Information
USA
TOKYO
CMA
HKO
NEWDELHI
REUNION
BOM IDCKMSTM0S.csv:Line=227:unnamed
NADI
WELLINGTON
DS824
TD9636
TD9635
NEUMANN
MLC

All available IBTrACS Data

SEASON BASIN SUBBASIN ISO_TIME_________ NATURE LAT LON WMO AGENCY DIST2LAND LANDFALL IFLAG USA SSHS BOM LAT BOM LON STORM SPEED STORM DIR
Year degrees north degrees east km km 1 degrees north degrees east kts degrees
1916 SI WA 1915-12-21 23:30:00 NR -12.70 128.50 bom 166 166 ______O_______ -1 -12.70 128.50 4 54
1916 SI WA 1915-12-22 00:00:00 NR -12.68 128.53 166 156 ______P_______ -1 -12.68 128.53 4 52
1916 SI WA 03:00:00 NR -12.54 128.71 161 146 ______P_______ -1 -12.54 128.71 5 53
1916 SI WA 06:00:00 NR -12.40 128.90 146 122 ______P_______ -1 -12.40 128.90 5 56
1916 SI WA 09:00:00 NR -12.28 129.10 122 97 ______P_______ -1 -12.28 129.10 5 61
1916 SI WA 12:00:00 NR -12.18 129.32 97 63 ______P_______ -1 -12.18 129.32 5 67
1916 SI WA 15:00:00 NR -12.09 129.57 63 31 ______P_______ -1 -12.09 129.57 5 74
1916 SI WA 18:00:00 NR -12.03 129.86 31 22 ______P_______ -1 -12.03 129.86 6 81
1916 SI WA 21:00:00 NR -12.00 130.19 22 22 ______P_______ -1 -12.00 130.19 7 87
1916 SI WA 23:30:00 NR -12.00 130.50 bom 22 22 ______O_______ -1 -12.00 130.50 7 91
1916 SI WA 1915-12-23 00:00:00 NR -12.00 130.57 22 11 ______P_______ -1 -12.00 130.57 8 96
1916 SI WA 03:00:00 NR -12.05 130.98 22 0 ______P_______ -1 -12.05 130.98 8 101
1916 SI WA 06:00:00 NR -12.15 131.38 10 10 ______P_______ -1 -12.15 131.38 8 106
1916 SI WA 07:00:00 NR -12.20 131.50 bom 11 0 ______O_______ -1 -12.20 131.50 7 118
1916 SI WA 09:00:00 NR -12.32 131.71 0 0 ______P_______ -1 -12.32 131.71 7 129
1916 SI WA 12:00:00 NR -12.55 131.95 0 0 ______P_______ -1 -12.55 131.95 7 142
1916 SI WA 15:00:00 NR -12.84 132.12 0 0 ______P_______ -1 -12.84 132.12 7 154
1916 SI WA 18:00:00 NR -13.16 132.24 0 0 ______P_______ -1 -13.16 132.24 7 163
1916 SI WA 21:00:00 NR -13.50 132.34 0 0 ______P_______ -1 -13.50 132.34 7 167
1916 SI WA 23:30:00 NR -13.80 132.40 bom 0 ______O_______ -1 -13.80 132.40 7 170